createdAt,value
2023-05-24T00:00:31.655Z,6.50
2023-05-24T00:03:02.742Z,5.80
2023-05-24T00:05:31.078Z,5.90
2023-05-24T00:08:00.147Z,5.90
2023-05-24T00:10:28.111Z,6.00
2023-05-24T00:12:56.096Z,7.00
2023-05-24T00:15:24.624Z,5.80
2023-05-24T00:17:52.600Z,6.10
2023-05-24T00:20:21.914Z,6.00
2023-05-24T00:22:49.823Z,5.80
2023-05-24T00:25:17.931Z,6.80
2023-05-24T00:27:45.877Z,5.60
2023-05-24T00:30:14.125Z,5.60
2023-05-24T00:32:42.138Z,5.80
2023-05-24T00:35:10.635Z,6.00
2023-05-24T00:37:41.873Z,5.80
2023-05-24T00:40:11.021Z,5.80
2023-05-24T00:42:38.928Z,5.70
2023-05-24T00:45:08.206Z,6.00
2023-05-24T00:47:36.236Z,5.60
2023-05-24T00:50:04.453Z,6.30
2023-05-24T00:52:32.659Z,6.30
2023-05-24T00:55:01.989Z,6.40
2023-05-24T00:57:29.975Z,5.40
2023-05-24T00:59:58.136Z,5.20
2023-05-24T01:02:26.828Z,5.30
2023-05-24T01:04:56.124Z,5.40
2023-05-24T01:07:31.675Z,6.20
2023-05-24T01:10:14.469Z,5.70
2023-05-24T01:12:52.770Z,5.30
2023-05-24T01:15:29.548Z,6.30
2023-05-24T01:18:06.316Z,5.10
2023-05-24T01:20:38.165Z,5.90
2023-05-24T01:23:18.949Z,5.20
2023-05-24T01:25:56.955Z,5.80
2023-05-24T01:28:27.379Z,5.30
2023-05-24T01:30:56.661Z,5.10
2023-05-24T01:33:24.934Z,5.30
2023-05-24T01:35:52.849Z,5.20
2023-05-24T01:38:20.789Z,5.30
2023-05-24T01:40:53.864Z,5.50
2023-05-24T01:43:32.616Z,5.10
2023-05-24T01:46:07.728Z,5.60
2023-05-24T01:48:42.499Z,5.30
2023-05-24T01:51:12.030Z,5.30
2023-05-24T01:53:46.534Z,5.90
2023-05-24T01:56:16.005Z,5.30
2023-05-24T01:58:47.789Z,5.40
2023-05-24T02:01:16.578Z,5.30
2023-05-24T02:03:44.643Z,5.60
2023-05-24T02:06:12.533Z,5.40
2023-05-24T02:08:40.398Z,5.40
2023-05-24T02:11:08.317Z,5.20
2023-05-24T02:13:36.259Z,5.90
2023-05-24T02:16:06.081Z,5.60
2023-05-24T02:18:35.775Z,5.70
2023-05-24T02:21:04.556Z,6.60
2023-05-24T02:23:32.613Z,7.40
2023-05-24T02:26:01.356Z,5.70
2023-05-24T02:28:32.168Z,6.10
2023-05-24T02:31:00.145Z,6.80
2023-05-24T02:33:30.204Z,6.20
2023-05-24T02:35:58.403Z,5.90
2023-05-24T02:38:26.450Z,6.00
2023-05-24T02:40:54.391Z,6.80
2023-05-24T02:43:22.253Z,6.80
2023-05-24T02:45:50.207Z,7.30
2023-05-24T02:48:18.129Z,6.00
2023-05-24T02:50:47.531Z,6.00
2023-05-24T02:53:15.847Z,6.30
2023-05-24T02:55:46.678Z,6.80
2023-05-24T02:58:14.579Z,7.20
2023-05-24T03:00:42.587Z,6.90
2023-05-24T03:03:10.763Z,6.10
2023-05-24T03:05:38.804Z,7.40
2023-05-24T03:08:08.274Z,6.50
2023-05-24T03:10:36.271Z,6.20
2023-05-24T03:13:04.220Z,8.80
2023-05-24T03:15:32.154Z,6.20
2023-05-24T03:18:00.153Z,6.20
2023-05-24T03:20:28.272Z,7.90
2023-05-24T03:22:56.310Z,7.30
2023-05-24T03:25:27.288Z,7.40
2023-05-24T03:27:55.273Z,6.30
2023-05-24T03:30:23.153Z,7.50
2023-05-24T03:32:51.221Z,6.60
2023-05-24T03:35:19.281Z,7.30
2023-05-24T03:37:47.292Z,6.50
2023-05-24T03:40:15.226Z,6.10
2023-05-24T03:42:44.487Z,7.40
2023-05-24T03:45:12.647Z,7.20
2023-05-24T03:47:40.616Z,6.60
2023-05-24T03:50:09.264Z,6.70
2023-05-24T03:52:37.169Z,6.50
2023-05-24T03:55:05.493Z,6.90
2023-05-24T03:57:33.360Z,6.60
2023-05-24T04:00:02.811Z,6.80
2023-05-24T04:02:30.852Z,6.70
2023-05-24T04:04:58.787Z,6.70
2023-05-24T04:07:26.660Z,7.20
2023-05-24T04:09:54.541Z,6.90
2023-05-24T04:12:22.422Z,6.80
2023-05-24T04:14:51.736Z,6.80
2023-05-24T04:17:24.856Z,6.90
2023-05-24T04:19:53.129Z,7.20
2023-05-24T04:22:21.514Z,7.10
2023-05-24T04:24:50.600Z,7.30
2023-05-24T04:27:19.005Z,7.60
2023-05-24T04:29:49.713Z,7.60
2023-05-24T04:32:17.953Z,7.90
2023-05-24T04:34:47.401Z,7.90
2023-05-24T04:37:17.182Z,7.90
2023-05-24T04:39:45.498Z,8.00
2023-05-24T04:42:13.814Z,8.20
2023-05-24T04:44:42.636Z,8.30
2023-05-24T04:47:10.738Z,8.50
2023-05-24T04:49:38.927Z,8.40
2023-05-24T04:52:08.842Z,8.50
2023-05-24T04:54:36.714Z,8.60
2023-05-24T04:57:04.791Z,8.90
2023-05-24T04:59:32.642Z,9.30
2023-05-24T05:02:00.683Z,9.50
2023-05-24T05:04:28.625Z,9.80
2023-05-24T05:06:56.540Z,9.70
2023-05-24T05:09:25.858Z,10.10
2023-05-24T05:11:53.712Z,10.20
2023-05-24T05:14:21.628Z,10.60
2023-05-24T05:16:49.641Z,10.60
2023-05-24T05:19:17.859Z,10.60
2023-05-24T05:21:45.869Z,10.90
2023-05-24T05:24:13.812Z,10.90
2023-05-24T05:26:43.070Z,11.30
2023-05-24T05:29:11.017Z,11.60
2023-05-24T05:31:39.564Z,11.70
2023-05-24T05:34:09.645Z,12.00
2023-05-24T05:36:40.622Z,12.20
2023-05-24T05:39:09.821Z,12.30
2023-05-24T05:41:39.639Z,12.40
2023-05-24T05:44:09.111Z,13.00
2023-05-24T05:46:37.136Z,13.30
2023-05-24T05:49:05.151Z,13.40
2023-05-24T05:51:33.044Z,13.20
2023-05-24T05:54:00.957Z,13.60
2023-05-24T05:56:29.053Z,13.60
2023-05-24T05:58:56.912Z,13.60
2023-05-24T06:01:26.261Z,13.70
2023-05-24T06:03:54.227Z,13.40
2023-05-24T06:06:22.192Z,13.00
2023-05-24T06:08:50.071Z,12.90
2023-05-24T06:11:18.049Z,12.60
2023-05-24T06:13:45.964Z,12.70
2023-05-24T06:16:14.272Z,13.20
2023-05-24T06:18:53.379Z,13.60
2023-05-24T06:21:30.147Z,14.30
2023-05-24T06:23:58.168Z,14.60
2023-05-24T06:26:27.129Z,14.50
2023-05-24T06:28:55.681Z,14.50
2023-05-24T06:31:23.636Z,14.40
2023-05-24T06:34:03.727Z,14.30
2023-05-24T06:36:34.029Z,14.10
2023-05-24T06:39:01.937Z,14.10
2023-05-24T06:41:29.872Z,14.10
2023-05-24T06:43:57.736Z,14.20
2023-05-24T06:46:25.604Z,13.90
2023-05-24T06:48:55.007Z,13.90
2023-05-24T06:51:22.978Z,13.80
2023-05-24T06:53:50.978Z,13.60
2023-05-24T06:56:18.906Z,13.80
2023-05-24T06:58:46.804Z,14.10
2023-05-24T07:01:15.307Z,13.70
2023-05-24T07:03:43.370Z,13.60
2023-05-24T07:06:14.167Z,13.60
2023-05-24T07:08:42.174Z,13.50
2023-05-24T07:11:10.623Z,13.50
2023-05-24T07:13:38.524Z,13.00
2023-05-24T07:16:08.004Z,13.00
2023-05-24T07:18:36.287Z,12.90
2023-05-24T07:21:04.305Z,12.80
2023-05-24T07:23:33.748Z,12.80
2023-05-24T07:26:01.658Z,12.90
2023-05-24T07:28:29.569Z,13.00
2023-05-24T07:30:57.527Z,13.30
2023-05-24T07:33:25.437Z,12.90
2023-05-24T07:35:53.747Z,13.00
2023-05-24T07:38:22.388Z,12.80
2023-05-24T07:40:52.759Z,12.90
2023-05-24T07:43:20.641Z,13.30
2023-05-24T07:45:48.680Z,12.90
2023-05-24T07:48:16.609Z,13.10
2023-05-24T07:50:48.744Z,13.10
2023-05-24T07:53:16.815Z,13.00
2023-05-24T07:55:45.340Z,12.90
2023-05-24T07:58:14.636Z,12.80
2023-05-24T08:00:43.461Z,13.10
2023-05-24T08:03:13.442Z,12.60
2023-05-24T08:05:41.944Z,12.30
2023-05-24T08:08:10.516Z,12.20
2023-05-24T08:10:38.423Z,12.10
2023-05-24T08:13:06.605Z,12.00
2023-05-24T08:15:35.857Z,12.00
2023-05-24T08:18:05.150Z,12.00
2023-05-24T08:20:36.125Z,11.80
2023-05-24T08:23:04.199Z,11.80
2023-05-24T08:25:32.061Z,11.70
2023-05-24T08:28:00.060Z,11.70
2023-05-24T08:30:28.059Z,12.00
2023-05-24T08:32:58.133Z,11.60
2023-05-24T08:35:26.100Z,11.70
2023-05-24T08:37:53.984Z,11.80
2023-05-24T08:40:23.921Z,11.70
2023-05-24T08:42:53.442Z,11.70
2023-05-24T08:45:23.166Z,11.50
2023-05-24T08:47:52.448Z,11.70
2023-05-24T08:50:24.203Z,11.60
2023-05-24T08:52:53.118Z,11.60
2023-05-24T08:55:22.418Z,11.80
2023-05-24T08:57:51.375Z,11.60
2023-05-24T09:00:20.264Z,11.50
2023-05-24T09:02:48.421Z,11.50
2023-05-24T09:05:17.554Z,11.60
2023-05-24T09:07:47.313Z,11.60
2023-05-24T09:10:16.289Z,11.50
2023-05-24T09:12:46.636Z,11.50
2023-05-24T09:15:14.504Z,11.90
2023-05-24T09:17:42.382Z,11.50
2023-05-24T09:20:11.819Z,11.60
2023-05-24T09:22:42.920Z,11.60
2023-05-24T09:25:15.126Z,11.70
2023-05-24T09:27:45.050Z,11.80
2023-05-24T09:30:16.386Z,11.80
2023-05-24T09:32:56.165Z,11.80
2023-05-24T09:35:26.669Z,11.80
2023-05-24T09:37:57.581Z,11.80
2023-05-24T09:40:27.748Z,12.10
2023-05-24T09:43:05.789Z,11.80
2023-05-24T09:45:33.747Z,11.80
2023-05-24T09:48:04.613Z,11.80
2023-05-24T09:50:32.953Z,11.80
2023-05-24T09:53:01.013Z,12.50
2023-05-24T09:55:30.986Z,12.00
2023-05-24T09:58:04.550Z,11.90
2023-05-24T10:00:36.359Z,11.90
2023-05-24T10:03:07.154Z,12.40
2023-05-24T10:05:36.884Z,11.80
2023-05-24T10:08:06.014Z,11.80
2023-05-24T10:10:35.357Z,11.80
2023-05-24T10:13:03.887Z,12.30
2023-05-24T10:15:31.858Z,11.60
2023-05-24T10:18:01.746Z,11.70
2023-05-24T10:20:30.087Z,12.60
2023-05-24T10:23:01.737Z,11.60
2023-05-24T10:25:30.609Z,11.90
2023-05-24T10:28:03.307Z,11.60
2023-05-24T10:30:43.594Z,11.60
2023-05-24T10:33:14.980Z,11.70
2023-05-24T10:35:44.471Z,11.60
2023-05-24T10:38:12.479Z,11.70
2023-05-24T10:40:43.711Z,11.50
2023-05-24T10:43:13.064Z,11.60
2023-05-24T10:45:42.063Z,11.40
2023-05-24T10:48:25.651Z,11.50
2023-05-24T10:50:53.542Z,11.60
2023-05-24T10:53:23.325Z,11.70
2023-05-24T10:55:58.009Z,12.50
2023-05-24T10:58:47.197Z,11.90
2023-05-24T11:01:15.532Z,12.00
2023-05-24T11:03:43.745Z,12.20
2023-05-24T11:06:11.795Z,12.20
2023-05-24T11:08:45.071Z,12.80
2023-05-24T11:11:25.585Z,12.50
2023-05-24T11:13:58.615Z,12.50
2023-05-24T11:16:38.141Z,12.70
2023-05-24T11:19:14.044Z,12.50
2023-05-24T11:21:44.530Z,12.60
2023-05-24T11:24:12.666Z,12.50
2023-05-24T11:26:41.178Z,12.80
2023-05-24T11:29:10.632Z,13.50
2023-05-24T11:31:43.254Z,13.10
2023-05-24T11:34:12.540Z,13.20
2023-05-24T11:36:41.098Z,13.40
2023-05-24T11:39:09.588Z,13.90
2023-05-24T11:41:39.345Z,13.80
2023-05-24T11:44:10.563Z,14.10
2023-05-24T11:46:40.455Z,14.90
2023-05-24T11:49:08.475Z,15.50
2023-05-24T11:51:37.473Z,15.50
2023-05-24T11:54:05.561Z,15.40
2023-05-24T11:56:34.267Z,15.60
2023-05-24T11:59:15.206Z,15.60
2023-05-24T12:01:43.198Z,15.30
2023-05-24T12:04:11.881Z,15.30
2023-05-24T12:06:41.820Z,15.30
2023-05-24T12:09:13.181Z,15.10
2023-05-24T12:11:42.353Z,15.30
2023-05-24T12:14:14.913Z,15.20
2023-05-24T12:16:43.825Z,15.20
2023-05-24T12:19:31.774Z,15.40
2023-05-24T12:22:01.225Z,15.70
2023-05-24T12:24:29.366Z,16.30
2023-05-24T12:27:01.191Z,16.30
2023-05-24T12:29:33.969Z,16.50
2023-05-24T12:32:01.961Z,16.50
2023-05-24T12:34:30.587Z,16.50
2023-05-24T12:36:58.567Z,16.90
2023-05-24T12:39:31.195Z,16.30
2023-05-24T12:42:01.601Z,16.20
2023-05-24T12:44:32.335Z,16.30
2023-05-24T12:47:00.577Z,16.60
2023-05-24T12:49:28.591Z,15.70
2023-05-24T12:51:57.647Z,15.40
2023-05-24T12:54:27.076Z,15.20
2023-05-24T12:56:57.331Z,14.70
2023-05-24T12:59:27.219Z,14.40
2023-05-24T13:01:56.760Z,14.90
2023-05-24T13:04:26.280Z,14.30
2023-05-24T13:06:54.519Z,14.30
2023-05-24T13:09:23.318Z,14.40
2023-05-24T13:11:52.164Z,14.40
2023-05-24T13:14:20.744Z,14.50
2023-05-24T13:16:49.092Z,14.50
2023-05-24T13:19:18.630Z,14.60
2023-05-24T13:21:46.852Z,14.60
2023-05-24T13:24:17.170Z,15.40
2023-05-24T13:26:45.598Z,15.40
2023-05-24T13:31:45.333Z,15.20
2023-05-24T13:34:13.576Z,15.10
2023-05-24T13:36:43.700Z,15.20
2023-05-24T13:39:16.299Z,15.00
2023-05-24T13:41:45.112Z,15.20
2023-05-24T13:44:13.584Z,15.20
2023-05-24T13:46:42.497Z,15.00
2023-05-24T13:49:12.449Z,15.20
2023-05-24T13:51:42.114Z,15.50
2023-05-24T13:54:10.101Z,15.80
2023-05-24T13:56:39.646Z,15.30
2023-05-24T13:59:08.471Z,15.70
2023-05-24T14:01:37.665Z,15.50
2023-05-24T14:04:06.453Z,16.10
2023-05-24T14:06:37.413Z,15.50
2023-05-24T14:09:08.302Z,15.50
2023-05-24T14:11:36.276Z,15.70
2023-05-24T14:16:35.250Z,16.30
2023-05-24T14:19:03.169Z,16.20
2023-05-24T14:21:31.067Z,15.40
2023-05-24T14:23:59.008Z,16.20
2023-05-24T14:26:28.564Z,15.40
2023-05-24T14:28:57.056Z,15.80
2023-05-24T14:31:25.620Z,15.60
2023-05-24T14:33:53.573Z,16.50
2023-05-24T14:36:21.712Z,16.00
2023-05-24T14:38:49.612Z,15.50
2023-05-24T14:41:17.498Z,15.90
2023-05-24T14:43:46.723Z,15.70
2023-05-24T14:46:14.661Z,15.90
2023-05-24T14:48:42.580Z,15.80
2023-05-24T14:51:10.706Z,16.20
2023-05-24T14:53:38.607Z,16.30
2023-05-24T14:56:08.943Z,16.30
2023-05-24T14:58:37.137Z,16.40
2023-05-24T15:01:08.032Z,16.70
2023-05-24T15:03:36.503Z,17.00
2023-05-24T15:06:05.479Z,16.50
2023-05-24T15:08:34.733Z,16.40
2023-05-24T15:11:02.925Z,16.30
2023-05-24T15:13:31.138Z,16.60
2023-05-24T15:16:00.417Z,16.10
2023-05-24T15:18:32.147Z,16.00
2023-05-24T15:21:00.220Z,16.00
2023-05-24T15:23:28.369Z,16.10
2023-05-24T15:25:56.311Z,16.60
2023-05-24T15:28:26.239Z,16.00
2023-05-24T15:30:54.723Z,16.00
2023-05-24T15:33:22.700Z,16.10
2023-05-24T15:35:51.977Z,16.50
2023-05-24T15:38:19.837Z,16.20
2023-05-24T15:40:48.610Z,16.20
2023-05-24T15:43:18.500Z,15.80
2023-05-24T15:45:47.275Z,15.70
2023-05-24T15:48:15.300Z,15.40
2023-05-24T15:51:11.556Z,15.80
2023-05-24T15:53:32.523Z,15.90
2023-05-24T15:56:00.698Z,15.70
2023-05-24T15:58:28.629Z,15.40
2023-05-24T16:00:56.485Z,15.60
2023-05-24T16:03:24.500Z,16.30
2023-05-24T16:05:52.516Z,15.80
2023-05-24T16:08:23.251Z,16.20
2023-05-24T16:10:52.544Z,15.30
2023-05-24T16:13:21.468Z,15.20
2023-05-24T16:15:51.503Z,17.40
2023-05-24T16:18:22.184Z,15.60
2023-05-24T16:20:50.861Z,16.00
2023-05-24T16:23:19.623Z,15.20
2023-05-24T16:25:47.566Z,15.70
2023-05-24T16:28:16.936Z,15.30
2023-05-24T16:30:45.002Z,16.20
2023-05-24T16:33:13.137Z,15.90
2023-05-24T16:35:41.126Z,16.10
2023-05-24T16:38:09.045Z,16.60
2023-05-24T16:40:36.934Z,16.00
2023-05-24T16:43:04.809Z,15.80
2023-05-24T16:45:34.102Z,15.60
2023-05-24T16:48:02.395Z,15.50
2023-05-24T16:50:30.616Z,15.40
2023-05-24T16:52:58.863Z,15.30
2023-05-24T16:55:26.835Z,15.70
2023-05-24T16:57:54.759Z,16.00
2023-05-24T17:00:23.126Z,15.50
2023-05-24T17:02:52.557Z,15.60
2023-05-24T17:05:20.569Z,15.80
2023-05-24T17:07:48.594Z,15.70
2023-05-24T17:10:16.476Z,15.20
2023-05-24T17:12:44.475Z,16.70
2023-05-24T17:15:13.044Z,15.30
2023-05-24T17:17:41.028Z,15.90
2023-05-24T17:20:11.066Z,16.40
2023-05-24T17:22:39.034Z,15.00
2023-05-24T17:25:08.018Z,16.00
2023-05-24T17:27:35.949Z,14.80
2023-05-24T17:30:04.011Z,15.90
2023-05-24T17:32:31.954Z,14.80
2023-05-24T17:34:59.824Z,16.10
2023-05-24T17:37:29.068Z,14.70
2023-05-24T17:39:56.977Z,14.70
2023-05-24T17:42:25.528Z,14.90
2023-05-24T17:44:53.480Z,15.20
2023-05-24T17:47:21.427Z,15.80
2023-05-24T17:49:49.384Z,15.50
2023-05-24T17:52:17.278Z,15.10
2023-05-24T17:54:48.540Z,15.40
2023-05-24T17:57:16.456Z,15.00
2023-05-24T17:59:44.384Z,15.20
2023-05-24T18:02:12.275Z,14.70
2023-05-24T18:04:40.166Z,15.40
2023-05-24T18:07:08.136Z,16.80
2023-05-24T18:09:36.035Z,14.80
2023-05-24T18:12:05.679Z,14.40
2023-05-24T18:14:34.720Z,14.60
2023-05-24T18:17:02.680Z,14.90
2023-05-24T18:19:30.918Z,14.00
2023-05-24T18:21:59.071Z,14.50
2023-05-24T18:24:26.995Z,14.40
2023-05-24T18:26:54.907Z,14.10
2023-05-24T18:29:24.224Z,14.50
2023-05-24T18:31:52.571Z,13.90
2023-05-24T18:34:20.723Z,13.90
2023-05-24T18:36:49.769Z,14.10
2023-05-24T18:39:17.677Z,13.70
2023-05-24T18:41:45.720Z,13.60
2023-05-24T18:44:14.560Z,14.00
2023-05-24T18:51:40.724Z,13.40
2023-05-24T18:54:09.013Z,13.40
2023-05-24T18:56:36.884Z,13.20
2023-05-24T18:59:04.745Z,13.10
2023-05-24T19:01:32.696Z,13.40
2023-05-24T19:04:02.586Z,13.00
2023-05-24T19:06:31.144Z,12.90
2023-05-24T19:09:00.123Z,13.00
2023-05-24T19:11:28.396Z,13.10
2023-05-24T19:13:56.319Z,13.00
2023-05-24T19:16:24.274Z,14.30
2023-05-24T19:18:52.281Z,12.60
2023-05-24T19:21:23.833Z,13.00
2023-05-24T19:23:51.757Z,12.80
2023-05-24T19:26:19.702Z,13.10
2023-05-24T19:28:50.470Z,12.30
2023-05-24T19:31:18.431Z,12.00
2023-05-24T19:34:00.062Z,12.80
2023-05-24T19:36:32.708Z,14.00
2023-05-24T19:39:00.714Z,12.20
2023-05-24T19:41:28.694Z,12.50
2023-05-24T19:43:58.408Z,12.20
2023-05-24T19:46:26.837Z,12.40
2023-05-24T19:48:54.740Z,11.40
2023-05-24T19:51:22.656Z,13.80
2023-05-24T19:53:51.968Z,12.50
2023-05-24T19:56:20.618Z,12.10
2023-05-24T19:58:48.538Z,11.60
2023-05-24T20:01:16.441Z,11.40
2023-05-24T20:03:48.333Z,10.80
2023-05-24T20:06:16.762Z,11.10
2023-05-24T20:08:44.945Z,11.80
2023-05-24T20:11:15.347Z,11.00
2023-05-24T20:13:43.317Z,10.70
2023-05-24T20:16:11.421Z,11.20
2023-05-24T20:18:39.383Z,11.20
2023-05-24T20:21:07.394Z,12.00
2023-05-24T20:23:35.325Z,11.10
2023-05-24T20:26:03.271Z,11.10
2023-05-24T20:28:32.503Z,11.00
2023-05-24T20:31:01.096Z,11.00
2023-05-24T20:33:29.023Z,10.60
2023-05-24T20:35:57.024Z,10.90
2023-05-24T20:38:24.929Z,13.00
2023-05-24T20:40:52.852Z,10.80
2023-05-24T20:43:20.834Z,10.70
2023-05-24T20:45:50.284Z,10.60
2023-05-24T20:48:18.924Z,11.00
2023-05-24T20:50:46.892Z,10.40
2023-05-24T20:53:14.837Z,10.30
2023-05-24T20:55:42.900Z,10.20
2023-05-24T20:58:11.211Z,10.10
2023-05-24T21:00:40.089Z,11.10
2023-05-24T21:03:10.058Z,9.90
2023-05-24T21:05:40.003Z,9.80
2023-05-24T21:08:07.913Z,9.80
2023-05-24T21:10:37.851Z,9.70
2023-05-24T21:13:05.868Z,9.60
2023-05-24T21:15:33.827Z,9.60
2023-05-24T21:18:01.779Z,9.50
2023-05-24T21:20:31.201Z,9.40
2023-05-24T21:22:59.155Z,9.30
2023-05-24T21:25:27.082Z,9.20
2023-05-24T21:27:54.966Z,9.10
2023-05-24T21:30:22.998Z,9.00
2023-05-24T21:32:50.973Z,9.00
2023-05-24T21:35:18.941Z,8.90
2023-05-24T21:37:48.329Z,8.90
2023-05-24T21:40:16.299Z,8.80
2023-05-24T21:42:44.272Z,8.70
2023-05-24T21:45:12.939Z,8.60
2023-05-24T21:47:40.869Z,8.60
2023-05-24T21:50:09.541Z,8.40
2023-05-24T21:52:37.559Z,8.40
2023-05-24T21:55:07.733Z,8.30
2023-05-24T21:57:35.770Z,8.30
2023-05-24T22:00:04.567Z,9.90
2023-05-24T22:02:32.590Z,8.00
2023-05-24T22:05:01.185Z,8.50
2023-05-24T22:07:29.184Z,7.90
2023-05-24T22:09:57.184Z,7.90
2023-05-24T22:12:26.480Z,7.80
2023-05-24T22:14:54.417Z,7.80
2023-05-24T22:17:22.881Z,8.50
2023-05-24T22:19:52.964Z,9.90
2023-05-24T22:22:22.686Z,8.30
2023-05-24T22:24:50.788Z,7.60
2023-05-24T22:27:18.790Z,7.50
2023-05-24T22:29:48.429Z,7.40
2023-05-24T22:32:16.478Z,7.60
2023-05-24T22:34:44.382Z,8.80
2023-05-24T22:37:12.302Z,7.30
2023-05-24T22:39:40.476Z,7.20
2023-05-24T22:42:08.500Z,7.60
2023-05-24T22:44:36.364Z,7.20
2023-05-24T22:47:05.881Z,7.10
2023-05-24T22:49:34.052Z,7.10
2023-05-24T22:52:02.238Z,7.10
2023-05-24T22:54:30.153Z,7.10
2023-05-24T22:56:58.028Z,7.10
2023-05-24T22:59:26.068Z,7.10
2023-05-24T23:01:54.111Z,7.60
2023-05-24T23:04:23.542Z,7.00
2023-05-24T23:06:53.410Z,6.90
2023-05-24T23:09:28.804Z,6.90
2023-05-24T23:11:58.506Z,6.90
2023-05-24T23:14:30.097Z,7.60
2023-05-24T23:17:02.312Z,8.20
2023-05-24T23:19:32.418Z,6.70
2023-05-24T23:22:00.436Z,7.20
2023-05-24T23:24:28.354Z,6.80
2023-05-24T23:26:56.998Z,6.70
2023-05-24T23:29:24.972Z,7.00
2023-05-24T23:31:52.895Z,7.60
2023-05-24T23:34:20.828Z,6.50
2023-05-24T23:36:50.077Z,6.50
2023-05-24T23:39:18.206Z,6.50
2023-05-24T23:41:46.405Z,6.40
2023-05-24T23:44:14.279Z,6.40
2023-05-24T23:46:42.422Z,6.40
2023-05-24T23:49:10.391Z,6.30
2023-05-24T23:51:38.298Z,6.40
2023-05-24T23:54:07.659Z,7.60
2023-05-24T23:56:36.829Z,6.80
2023-05-24T23:59:04.817Z,7.10
